Terminal Aerodrome Forecast
Issued by NWS Shreveport, LA

Home | Current Version | Previous Version | Text Only | Print | Product List | Glossary On
Versions: 1 2 3 4 5 6 7 8 9 10 11 12 13 14 15 16 17 18
020
FTUS44 KSHV 191141
TAFMLU
TAF
KMLU 191141Z 1912/2012 00000KT 5SM BR SKC
      TEMPO 1912/1914 3SM BR
     FM191500 22004KT P6SM SCT010
      TEMPO 1915/1917 SCT008 BKN012
     FM191700 23006KT P6SM SCT025 SCT300
     FM191900 22006KT P6SM SCT035 SCT300
     FM200100 17003KT P6SM FEW300
     FM200400 18003KT 3SM BR FEW300=

USA.gov is the U.S. government's official web portal to all federal, state and local government web resources and services.